• Join FlightAware (Why Join?)
  • Login
  • US Flag 
07:07PM EDT


 

Airport Tracker/Info


-or-


 

Live Flight TrackerFlight Track Log ✈ SWA1707 ✈ 10-May-2013 ✈ KDAL - KABQ

Flight Track Log - Related Links

Times and Time Zones

All times are in EDT time to prevent confusion due to time zone crossing. See the SWA1707 flight status page for this flight to view local times or setup timezone preferences in your user account.

Time Position Orientation Groundspeed Altitude Reporting Facility
EDT Latitude Longitude Course Direction KTS MPH feet Rate Location/Type
10:44PM 32.8667 -96.8667 301° West 149 171 1,300  Level Dallas / Fort Worth TRACON
10:45PM 32.8833 -96.9000 301° West 201 231 2,800 2,280 Climbing Dallas / Fort Worth TRACON
10:46PM 32.9167 -96.9667 301° West 253 291 5,200 2,880 Climbing Dallas / Fort Worth TRACON
10:47PM 32.9000 -97.0500 257° West 260 299 8,600 2,760 Climbing Dallas / Fort Worth TRACON
10:49PM 32.8958 -97.2378 269° West 305 351 13,300 2,460 Climbing Fort Worth Center
10:50PM 32.8897 -97.3417 266° West 315 362 15,800 2,280 Climbing Fort Worth Center
10:51PM 32.8833 -97.4531 266° West 332 382 17,900 1,920 Climbing Fort Worth Center
10:52PM 32.8772 -97.5594 266° West 332 382 19,700 2,100 Climbing Fort Worth Center
10:53PM 32.8686 -97.6806 265° West 349 402 22,200 2,100 Climbing Fort Worth Center
10:54PM 32.8642 -97.7844 267° West 354 407 24,000 1,740 Climbing Fort Worth Center
10:55PM 32.8742 -97.9131 275° West 354 407 25,700 1,800 Climbing Fort Worth Center
10:56PM 32.9092 -98.0147 292° West 369 425 27,600 1,500 Climbing Fort Worth Center
10:57PM 32.9544 -98.1439 293° West 374 430 28,700 1,140 Climbing Fort Worth Center
10:58PM 32.9933 -98.2531 293° West 385 443 29,900 1,440 Climbing Fort Worth Center
10:59PM 33.0383 -98.3847 292° West 392 451 31,600 1,500 Climbing Fort Worth Center
11:00PM 33.0772 -98.4894 294° West 392 451 33,000 1,260 Climbing Fort Worth Center
11:01PM 33.1200 -98.6064 294° West 392 451 34,200 1,200 Climbing Fort Worth Center
11:02PM 33.1564 -98.7186 291° West 392 451 35,400 840 Climbing Fort Worth Center
11:03PM 33.1969 -98.8308 293° West 379 436 35,900 240 Climbing Fort Worth Center
11:04PM 33.2353 -98.9483 291° West 374 430 35,900  Level Fort Worth Center
11:05PM 33.2753 -99.0658 292° West 374 430 35,900  Level Fort Worth Center
11:06PM 33.3178 -99.1808 294° West 374 430 35,900  Level Fort Worth Center
11:07PM 33.3578 -99.2961 293° West 374 430 35,900  Level Fort Worth Center
11:08PM 33.3975 -99.4189 291° West 374 430 35,900  Level Fort Worth Center
11:09PM 33.4394 -99.5369 293° West 379 436 35,900  Level Fort Worth Center
11:10PM 33.4792 -99.6572 292° West 384 442 35,900  Level Fort Worth Center
11:11PM 33.5206 -99.7806 292° West 389 448 35,900  Level Fort Worth Center
11:12PM 33.5600 -99.8986 292° West 389 448 35,900  Level Fort Worth Center
11:13PM 33.6014 -100.0244 292° West 389 448 35,900  Level Fort Worth Center
11:14PM 33.6406 -100.1431 292° West 389 448 35,900  Level Fort Worth Center
11:15PM 33.6817 -100.2642 292° West 389 448 35,900  Level Fort Worth Center
11:16PM 33.7228 -100.3878 292° West 394 453 35,900  Level Fort Worth Center
11:17PM 33.7636 -100.5092 292° West 394 453 35,900  Level Fort Worth Center
11:18PM 33.8022 -100.6353 290° West 394 453 35,900  Level Fort Worth Center
11:19PM 33.8428 -100.7569 292° West 394 453 35,900  Level Fort Worth Center
11:20PM 33.8831 -100.8836 291° West 399 459 35,900  Level Fort Worth Center
11:21PM 33.9236 -101.0053 292° West 399 459 35,900  Level Fort Worth Center
11:22PM 33.9694 -101.1500 291° West 406 467 35,900  Level Fort Worth Center
11:23PM 34.0092 -101.2769 291° West 411 473 35,900  Level Fort Worth Center
11:24PM 34.0492 -101.4042 291° West 411 473 35,900  Level Fort Worth Center
11:25PM 34.0889 -101.5286 291° West 411 473 35,900  Level Fort Worth Center
11:26PM 34.1286 -101.6536 291° West 411 473 35,900  Level Fort Worth Center
11:27PM 34.1697 -101.7886 290° West 416 479 35,900  Level Fort Worth Center
11:28PM 34.2092 -101.9136 291° West 416 479 35,900  Level Fort Worth Center
11:30PM 34.2986 -102.1986 291° West 415 478 35,900  Level Albuquerque Center
11:31PM 34.3403 -102.3306 291° West 419 482 35,900  Level Albuquerque Center
11:32PM 34.3797 -102.4625 290° West 417 480 35,900  Level Albuquerque Center
11:33PM 34.4292 -102.6175 291° West 413 475 35,900  Level Albuquerque Center
11:34PM 34.4683 -102.7492 290° West 414 476 35,900  Level Albuquerque Center
11:35PM 34.5003 -102.8631 289° West 407 468 35,900  Level Albuquerque Center
11:36PM 34.5161 -102.9997 278° West 406 467 35,900  Level Albuquerque Center
11:37PM 34.5342 -103.1581 278° West 403 464 35,900  Level Albuquerque Center
11:38PM 34.5503 -103.2931 278° West 402 463 35,900  Level Albuquerque Center
11:39PM 34.5669 -103.4294 278° West 404 465 35,900  Level Albuquerque Center
11:40PM 34.5831 -103.5678 278° West 408 470 35,900  Level Albuquerque Center
11:41PM 34.6133 -103.7039 285° West 412 474 35,900  Level Albuquerque Center
11:42PM 34.6472 -103.8417 287° West 418 481 35,900  Level Albuquerque Center
11:43PM 34.6672 -103.9839 280° West 420 483 35,900  Level Albuquerque Center
11:44PM 34.6883 -104.1283 280° West 427 491 35,900  Level Albuquerque Center
11:45PM 34.7089 -104.2728 280° West 428 493 35,900 -1,140 Level Albuquerque Center
11:46PM 34.7292 -104.4178 280° West 429 494 33,600 -2,460 Descending Albuquerque Center
11:47PM 34.7494 -104.5608 280° West 426 490 30,900 -2,400 Descending Albuquerque Center
11:48PM 34.7697 -104.7006 280° West 419 482 28,800 -2,160 Descending Albuquerque Center
11:49PM 34.7892 -104.8383 280° West 411 473 26,600 -2,160 Descending Albuquerque Center
11:50PM 34.8064 -104.9719 279° West 403 464 24,500 -2,040 Descending Albuquerque Center
11:51PM 34.8256 -105.0992 280° West 386 444 22,500 -1,980 Descending Albuquerque Center
11:52PM 34.8411 -105.2261 279° West 379 436 20,500 -1,920 Descending Albuquerque Center
11:53PM 34.8592 -105.3533 280° West 377 434 18,600 -1,740 Descending Albuquerque Center
11:54PM 34.8758 -105.4728 280° West 362 417 17,000 -1,380 Descending Albuquerque Center
11:55PM 34.8903 -105.5897 279° West 351 404 15,900 -840 Descending Albuquerque Center
11:56PM 34.8936 -105.6356 275° West 341 392 15,900  Level Albuquerque Center
11:56PM 34.9069 -105.7039 283° West 343 395 15,900 60 Level Albuquerque Center
11:57PM 34.9117 -105.7581 276° West 339 390 16,000  Climbing Albuquerque Center
11:57PM 34.9206 -105.8197 280° West 343 395 15,900  Descending Albuquerque Center
11:58PM 34.9242 -105.8739 275° West 346 398 16,000  Climbing Albuquerque Center
11:58PM 34.9331 -105.9322 281° West 347 399 15,900 -720 Descending Albuquerque Center
11:59PM 34.9367 -105.9900 274° West 350 403 15,300 -1,680 Descending Albuquerque Center
11:59PM 34.9417 -106.0486 276° West 346 398 14,200 -1,800 Descending Albuquerque Center
12:00AM 34.9483 -106.1628 274° West 340 391 12,300 -1,440 Descending Albuquerque Center
12:02AM 34.9572 -106.3192 274° West 327 376 11,000 -1,140 Descending Albuquerque Center
12:02AM 34.9517 -106.4006 265° West 317 365 10,100 -1,080 Descending Albuquerque Center
12:03AM 34.9331 -106.4958 257° West 301 346 9,100 -1,140 Descending Albuquerque Center
12:05AM 34.9164 -106.5883 258° West 289 333 7,800 -840 Descending Albuquerque Center
12:06AM 34.9006 -106.6725 257° West 270 311 7,400 -360 Descending Albuquerque Center
12:06AM 34.8969 -106.6922 257° West 239 275 7,400  Level Albuquerque Center
12:07AM 34.9094 -106.7358 289° West 242 278 7,400 60 Level Albuquerque Center
12:07AM 34.9300 -106.7356 North 207 238 7,500 -300 Climbing Albuquerque Center
12:08AM 34.9603 -106.7058 39° Northeast 226 260 7,100 -720 Descending Albuquerque Center
12:08AM 34.9733 -106.6908 43° Northeast 206 237 6,800 -1,080 Descending Albuquerque Center
12:09AM 35.0067 -106.6486 46° Northeast 168 193 5,800 -840 Descending Albuquerque Center
12:10AM 35.0317 -106.6183 45° Northeast 185 213 5,400 -540 Descending Albuquerque Center
12:12AM 35.0333 -106.6000 90° East  Level FlightAware Approximate